sensor_id;sensor_type;location;lat;lon;timestamp;pressure;altitude;pressure_sealevel;temperature;humidity
45285;BME280;31026;43.780;25.948;2023-05-27T00:00:15;100775.91;;;20.46;76.26
45285;BME280;31026;43.780;25.948;2023-05-27T00:02:44;100767.84;;;20.46;76.29
45285;BME280;31026;43.780;25.948;2023-05-27T00:05:12;100773.22;;;20.46;76.28
45285;BME280;31026;43.780;25.948;2023-05-27T00:07:40;100774.06;;;20.46;76.10
45285;BME280;31026;43.780;25.948;2023-05-27T00:10:09;100761.78;;;20.44;76.30
45285;BME280;31026;43.780;25.948;2023-05-27T00:12:37;100771.50;;;20.45;76.03
45285;BME280;31026;43.780;25.948;2023-05-27T00:15:09;100771.00;;;20.41;76.68
45285;BME280;31026;43.780;25.948;2023-05-27T00:17:37;100758.41;;;20.42;76.40
45285;BME280;31026;43.780;25.948;2023-05-27T00:20:08;100767.16;;;20.44;76.43
45285;BME280;31026;43.780;25.948;2023-05-27T00:22:38;100766.44;;;20.42;75.89
45285;BME280;31026;43.780;25.948;2023-05-27T00:25:07;100769.13;;;20.42;75.87
45285;BME280;31026;43.780;25.948;2023-05-27T00:27:35;100768.84;;;20.45;76.25
45285;BME280;31026;43.780;25.948;2023-05-27T00:30:04;100769.84;;;20.44;76.11
45285;BME280;31026;43.780;25.948;2023-05-27T00:32:35;100762.75;;;20.43;76.19
45285;BME280;31026;43.780;25.948;2023-05-27T00:35:04;100759.38;;;20.41;75.97
45285;BME280;31026;43.780;25.948;2023-05-27T00:37:32;100767.59;;;20.39;75.82
45285;BME280;31026;43.780;25.948;2023-05-27T00:40:00;100763.06;;;20.40;75.72
45285;BME280;31026;43.780;25.948;2023-05-27T00:42:30;100763.75;;;20.42;75.80
45285;BME280;31026;43.780;25.948;2023-05-27T00:44:58;100755.72;;;20.42;76.09
45285;BME280;31026;43.780;25.948;2023-05-27T00:47:26;100751.19;;;20.42;75.85
45285;BME280;31026;43.780;25.948;2023-05-27T00:50:00;100758.66;;;20.39;75.61
45285;BME280;31026;43.780;25.948;2023-05-27T00:52:28;100757.69;;;20.40;75.94
45285;BME280;31026;43.780;25.948;2023-05-27T00:54:57;100760.25;;;20.41;75.88
45285;BME280;31026;43.780;25.948;2023-05-27T00:57:25;100765.31;;;20.44;75.41
45285;BME280;31026;43.780;25.948;2023-05-27T00:59:53;100764.75;;;20.41;75.79
45285;BME280;31026;43.780;25.948;2023-05-27T01:02:22;100747.78;;;20.40;75.65
45285;BME280;31026;43.780;25.948;2023-05-27T01:04:51;100754.00;;;20.41;75.56
45285;BME280;31026;43.780;25.948;2023-05-27T01:07:25;100752.31;;;20.40;75.37
45285;BME280;31026;43.780;25.948;2023-05-27T01:09:58;100746.94;;;20.40;75.46
45285;BME280;31026;43.780;25.948;2023-05-27T01:12:29;100750.63;;;20.39;75.59
45285;BME280;31026;43.780;25.948;2023-05-27T01:14:59;100760.06;;;20.43;75.61
45285;BME280;31026;43.780;25.948;2023-05-27T01:17:28;100744.16;;;20.79;74.18
45285;BME280;31026;43.780;25.948;2023-05-27T01:19:58;100749.63;;;20.59;74.58
45285;BME280;31026;43.780;25.948;2023-05-27T01:22:30;100756.81;;;20.49;75.42
45285;BME280;31026;43.780;25.948;2023-05-27T01:24:58;100746.06;;;20.49;75.02
45285;BME280;31026;43.780;25.948;2023-05-27T01:27:27;100756.97;;;20.48;75.22
45285;BME280;31026;43.780;25.948;2023-05-27T01:29:55;100752.44;;;20.48;75.24
45285;BME280;31026;43.780;25.948;2023-05-27T01:32:24;100746.94;;;20.50;74.83
45285;BME280;31026;43.780;25.948;2023-05-27T01:34:57;100746.06;;;20.49;74.90
45285;BME280;31026;43.780;25.948;2023-05-27T01:37:27;100745.78;;;20.52;74.90
45285;BME280;31026;43.780;25.948;2023-05-27T01:40:00;100741.88;;;20.84;73.88
45285;BME280;31026;43.780;25.948;2023-05-27T01:42:30;100743.50;;;20.57;74.55
45285;BME280;31026;43.780;25.948;2023-05-27T01:44:58;100754.53;;;20.54;75.07
45285;BME280;31026;43.780;25.948;2023-05-27T01:47:27;100758.75;;;20.57;74.15
45285;BME280;31026;43.780;25.948;2023-05-27T01:49:55;100773.06;;;20.57;74.25
45285;BME280;31026;43.780;25.948;2023-05-27T01:52:24;100774.03;;;20.56;74.17
45285;BME280;31026;43.780;25.948;2023-05-27T01:54:52;100759.50;;;20.49;74.62
45285;BME280;31026;43.780;25.948;2023-05-27T01:57:24;100767.09;;;20.73;74.11
45285;BME280;31026;43.780;25.948;2023-05-27T01:59:52;100774.06;;;20.66;74.52
45285;BME280;31026;43.780;25.948;2023-05-27T02:02:20;100775.47;;;20.60;74.47
45285;BME280;31026;43.780;25.948;2023-05-27T02:04:48;100778.56;;;20.56;74.93
45285;BME280;31026;43.780;25.948;2023-05-27T02:07:17;100780.84;;;20.60;74.76
45285;BME280;31026;43.780;25.948;2023-05-27T02:09:46;100767.53;;;20.69;73.88
45285;BME280;31026;43.780;25.948;2023-05-27T02:12:14;100784.78;;;20.76;73.92
45285;BME280;31026;43.780;25.948;2023-05-27T02:14:45;100772.69;;;20.90;73.24
45285;BME280;31026;43.780;25.948;2023-05-27T02:17:14;100772.97;;;20.86;73.73
45285;BME280;31026;43.780;25.948;2023-05-27T02:19:42;100763.91;;;20.97;73.36
45285;BME280;31026;43.780;25.948;2023-05-27T02:22:11;100769.44;;;20.86;73.45
45285;BME280;31026;43.780;25.948;2023-05-27T02:24:39;100779.00;;;20.98;73.36
45285;BME280;31026;43.780;25.948;2023-05-27T02:27:07;100776.00;;;21.11;72.72
45285;BME280;31026;43.780;25.948;2023-05-27T02:29:35;100780.09;;;21.15;72.36
45285;BME280;31026;43.780;25.948;2023-05-27T02:32:06;100776.53;;;21.15;72.34
45285;BME280;31026;43.780;25.948;2023-05-27T02:34:35;100765.47;;;21.18;72.06
45285;BME280;31026;43.780;25.948;2023-05-27T02:37:03;100772.56;;;21.19;72.38
45285;BME280;31026;43.780;25.948;2023-05-27T02:39:32;100773.41;;;21.19;72.27
45285;BME280;31026;43.780;25.948;2023-05-27T02:42:00;100769.09;;;20.99;72.77
45285;BME280;31026;43.780;25.948;2023-05-27T02:44:28;100766.88;;;20.94;72.95
45285;BME280;31026;43.780;25.948;2023-05-27T02:46:57;100784.59;;;20.87;73.67
45285;BME280;31026;43.780;25.948;2023-05-27T02:49:28;100776.72;;;20.76;73.83
45285;BME280;31026;43.780;25.948;2023-05-27T02:51:56;100785.16;;;20.81;73.87
45285;BME280;31026;43.780;25.948;2023-05-27T02:54:24;100777.03;;;21.00;73.35
45285;BME280;31026;43.780;25.948;2023-05-27T02:56:52;100783.91;;;20.85;73.70
45285;BME280;31026;43.780;25.948;2023-05-27T02:59:21;100770.34;;;20.67;74.36
45285;BME280;31026;43.780;25.948;2023-05-27T03:01:49;100777.47;;;20.96;73.81
45285;BME280;31026;43.780;25.948;2023-05-27T03:04:17;100781.91;;;20.87;74.16
45285;BME280;31026;43.780;25.948;2023-05-27T03:06:48;100786.16;;;20.80;74.34
45285;BME280;31026;43.780;25.948;2023-05-27T03:09:17;100787.34;;;20.68;74.88
45285;BME280;31026;43.780;25.948;2023-05-27T03:11:45;100801.72;;;20.86;74.25
45285;BME280;31026;43.780;25.948;2023-05-27T03:14:13;100787.72;;;20.82;74.65
45285;BME280;31026;43.780;25.948;2023-05-27T03:16:42;100782.47;;;20.81;73.93
45285;BME280;31026;43.780;25.948;2023-05-27T03:19:10;100788.03;;;20.79;75.20
45285;BME280;31026;43.780;25.948;2023-05-27T03:21:38;100787.34;;;20.68;75.55
45285;BME280;31026;43.780;25.948;2023-05-27T03:24:09;100798.69;;;20.61;75.78
45285;BME280;31026;43.780;25.948;2023-05-27T03:26:38;100787.22;;;20.59;75.95
45285;BME280;31026;43.780;25.948;2023-05-27T03:29:06;100783.53;;;20.60;75.59
45285;BME280;31026;43.780;25.948;2023-05-27T03:31:35;100798.38;;;20.64;75.38
45285;BME280;31026;43.780;25.948;2023-05-27T03:34:03;100798.25;;;20.66;75.42
45285;BME280;31026;43.780;25.948;2023-05-27T03:36:31;100795.00;;;20.62;75.36
45285;BME280;31026;43.780;25.948;2023-05-27T03:39:00;100788.78;;;20.62;75.51
45285;BME280;31026;43.780;25.948;2023-05-27T03:41:32;100801.38;;;20.61;75.66
45285;BME280;31026;43.780;25.948;2023-05-27T03:44:00;100811.81;;;20.64;75.55
45285;BME280;31026;43.780;25.948;2023-05-27T03:46:28;100800.66;;;20.59;75.53
45285;BME280;31026;43.780;25.948;2023-05-27T03:48:56;100809.44;;;20.61;75.27
45285;BME280;31026;43.780;25.948;2023-05-27T03:51:25;100802.78;;;20.65;75.19
45285;BME280;31026;43.780;25.948;2023-05-27T03:53:53;100811.81;;;20.64;75.35
45285;BME280;31026;43.780;25.948;2023-05-27T03:56:22;100810.97;;;20.64;75.11
45285;BME280;31026;43.780;25.948;2023-05-27T03:58:53;100802.78;;;20.65;75.24
45285;BME280;31026;43.780;25.948;2023-05-27T04:01:21;100807.09;;;20.86;74.63
45285;BME280;31026;43.780;25.948;2023-05-27T04:03:50;100812.22;;;20.70;75.25
45285;BME280;31026;43.780;25.948;2023-05-27T04:06:18;100808.41;;;20.62;75.50
45285;BME280;31026;43.780;25.948;2023-05-27T04:08:46;100802.06;;;20.63;75.47
45285;BME280;31026;43.780;25.948;2023-05-27T04:11:14;100816.00;;;20.77;75.29
45285;BME280;31026;43.780;25.948;2023-05-27T04:13:43;100798.09;;;20.68;75.18
45285;BME280;31026;43.780;25.948;2023-05-27T04:16:14;100816.91;;;20.58;75.79
45285;BME280;31026;43.780;25.948;2023-05-27T04:18:43;100803.75;;;20.64;75.70
45285;BME280;31026;43.780;25.948;2023-05-27T04:21:13;100805.13;;;20.78;74.97
45285;BME280;31026;43.780;25.948;2023-05-27T04:23:42;100812.56;;;20.94;74.56
45285;BME280;31026;43.780;25.948;2023-05-27T04:26:10;100808.50;;;20.80;74.96
45285;BME280;31026;43.780;25.948;2023-05-27T04:28:39;100816.72;;;20.79;75.10
45285;BME280;31026;43.780;25.948;2023-05-27T04:31:10;100819.56;;;20.77;74.52
45285;BME280;31026;43.780;25.948;2023-05-27T04:33:43;100831.47;;;20.65;73.45
45285;BME280;31026;43.780;25.948;2023-05-27T04:36:12;100817.03;;;20.66;74.38
45285;BME280;31026;43.780;25.948;2023-05-27T04:38:42;100822.66;;;20.82;73.98
45285;BME280;31026;43.780;25.948;2023-05-27T04:41:11;100808.34;;;20.92;73.44
45285;BME280;31026;43.780;25.948;2023-05-27T04:43:40;100830.22;;;20.97;73.73
45285;BME280;31026;43.780;25.948;2023-05-27T04:46:09;100818.06;;;21.02;74.00
45285;BME280;31026;43.780;25.948;2023-05-27T04:48:37;100816.84;;;20.87;74.51
45285;BME280;31026;43.780;25.948;2023-05-27T04:51:09;100826.53;;;21.08;73.53
45285;BME280;31026;43.780;25.948;2023-05-27T04:53:40;100829.38;;;21.06;73.83
45285;BME280;31026;43.780;25.948;2023-05-27T04:56:09;100818.06;;;21.02;74.83
45285;BME280;31026;43.780;25.948;2023-05-27T04:58:40;100829.47;;;21.14;74.38
45285;BME280;31026;43.780;25.948;2023-05-27T05:01:08;100823.44;;;21.02;74.75
45285;BME280;31026;43.780;25.948;2023-05-27T05:03:42;100825.63;;;21.17;73.58
45285;BME280;31026;43.780;25.948;2023-05-27T05:06:20;100827.88;;;21.21;74.21
45285;BME280;31026;43.780;25.948;2023-05-27T05:08:49;100841.41;;;21.39;74.01
45285;BME280;31026;43.780;25.948;2023-05-27T05:11:17;100838.28;;;21.34;74.04
45285;BME280;31026;43.780;25.948;2023-05-27T05:13:46;100846.50;;;21.33;74.42
45285;BME280;31026;43.780;25.948;2023-05-27T05:16:17;100832.75;;;21.08;75.39
45285;BME280;31026;43.780;25.948;2023-05-27T05:18:46;100845.47;;;21.16;73.07
45285;BME280;31026;43.780;25.948;2023-05-27T05:21:14;100847.34;;;21.05;74.48
45285;BME280;31026;43.780;25.948;2023-05-27T05:23:45;100843.69;;;20.97;74.74
45285;BME280;31026;43.780;25.948;2023-05-27T05:26:13;100848.63;;;21.01;74.76
45285;BME280;31026;43.780;25.948;2023-05-27T05:28:41;100847.94;;;20.99;74.48
45285;BME280;31026;43.780;25.948;2023-05-27T05:31:10;100850.75;;;20.98;74.80
45285;BME280;31026;43.780;25.948;2023-05-27T05:33:38;100842.13;;;20.94;74.95
45285;BME280;31026;43.780;25.948;2023-05-27T05:36:07;100853.19;;;20.91;75.05
45285;BME280;31026;43.780;25.948;2023-05-27T05:38:35;100845.53;;;20.96;74.85
45285;BME280;31026;43.780;25.948;2023-05-27T05:41:06;100842.94;;;21.04;74.44
45285;BME280;31026;43.780;25.948;2023-05-27T05:43:34;100841.19;;;20.85;75.28
45285;BME280;31026;43.780;25.948;2023-05-27T05:46:02;100848.22;;;20.96;75.06
45285;BME280;31026;43.780;25.948;2023-05-27T05:48:31;100850.63;;;20.99;74.57
45285;BME280;31026;43.780;25.948;2023-05-27T05:50:59;100853.06;;;20.83;75.07
45285;BME280;31026;43.780;25.948;2023-05-27T05:53:28;100851.22;;;20.93;74.74
45285;BME280;31026;43.780;25.948;2023-05-27T05:55:57;100861.78;;;20.95;74.94
45285;BME280;31026;43.780;25.948;2023-05-27T05:58:28;100854.44;;;20.97;74.95
45285;BME280;31026;43.780;25.948;2023-05-27T06:00:56;100859.50;;;21.10;75.07
45285;BME280;31026;43.780;25.948;2023-05-27T06:03:25;100856.13;;;21.08;75.10
45285;BME280;31026;43.780;25.948;2023-05-27T06:05:54;100857.63;;;21.20;74.33
45285;BME280;31026;43.780;25.948;2023-05-27T06:08:22;100854.09;;;21.19;74.18
45285;BME280;31026;43.780;25.948;2023-05-27T06:10:50;100862.88;;;21.12;74.16
45285;BME280;31026;43.780;25.948;2023-05-27T06:13:18;100863.38;;;20.97;74.93
45285;BME280;31026;43.780;25.948;2023-05-27T06:15:49;100865.31;;;21.05;74.75
45285;BME280;31026;43.780;25.948;2023-05-27T06:18:18;100867.59;;;21.00;74.58
45285;BME280;31026;43.780;25.948;2023-05-27T06:20:46;100863.94;;;20.91;74.76
45285;BME280;31026;43.780;25.948;2023-05-27T06:23:14;100864.22;;;20.88;74.88
45285;BME280;31026;43.780;25.948;2023-05-27T06:25:43;100872.34;;;21.16;73.81
45285;BME280;31026;43.780;25.948;2023-05-27T06:28:11;100866.75;;;20.99;74.45
45285;BME280;31026;43.780;25.948;2023-05-27T06:30:39;100875.09;;;20.96;73.48
45285;BME280;31026;43.780;25.948;2023-05-27T06:33:10;100876.09;;;21.05;74.20
45285;BME280;31026;43.780;25.948;2023-05-27T06:35:39;100866.88;;;21.08;74.17
45285;BME280;31026;43.780;25.948;2023-05-27T06:38:07;100865.00;;;21.08;75.03
45285;BME280;31026;43.780;25.948;2023-05-27T06:40:35;100864.47;;;21.04;74.30
45285;BME280;31026;43.780;25.948;2023-05-27T06:43:03;100844.94;;;21.02;73.82
45285;BME280;31026;43.780;25.948;2023-05-27T06:45:32;100845.81;;;21.03;73.30
45285;BME280;31026;43.780;25.948;2023-05-27T06:48:00;100858.38;;;21.02;73.28
45285;BME280;31026;43.780;25.948;2023-05-27T06:50:31;100866.75;;;20.99;73.27
45285;BME280;31026;43.780;25.948;2023-05-27T06:52:59;100856.59;;;20.93;72.69
45285;BME280;31026;43.780;25.948;2023-05-27T06:55:27;100861.34;;;21.09;72.24
45285;BME280;31026;43.780;25.948;2023-05-27T06:57:56;100859.03;;;21.14;72.03
45285;BME280;31026;43.780;25.948;2023-05-27T07:00:24;100877.66;;;21.35;71.92
45285;BME280;31026;43.780;25.948;2023-05-27T07:02:52;100864.84;;;21.57;71.18
45285;BME280;31026;43.780;25.948;2023-05-27T07:05:20;100865.19;;;21.34;72.35
45285;BME280;31026;43.780;25.948;2023-05-27T07:07:52;100874.25;;;21.43;72.12
45285;BME280;31026;43.780;25.948;2023-05-27T07:10:20;100854.41;;;21.44;72.13
45285;BME280;31026;43.780;25.948;2023-05-27T07:12:48;100872.47;;;21.24;73.26
45285;BME280;31026;43.780;25.948;2023-05-27T07:15:16;100870.94;;;21.12;73.78
45285;BME280;31026;43.780;25.948;2023-05-27T07:17:45;100863.03;;;21.10;73.91
45285;BME280;31026;43.780;25.948;2023-05-27T07:20:13;100851.81;;;21.15;73.38
45285;BME280;31026;43.780;25.948;2023-05-27T07:22:41;100866.28;;;21.14;73.82
45285;BME280;31026;43.780;25.948;2023-05-27T07:25:12;100852.25;;;21.20;73.12
45285;BME280;31026;43.780;25.948;2023-05-27T07:27:41;100852.75;;;21.33;72.79
45285;BME280;31026;43.780;25.948;2023-05-27T07:30:09;100850.22;;;21.32;72.79
45285;BME280;31026;43.780;25.948;2023-05-27T07:32:38;100872.06;;;21.19;73.34
45285;BME280;31026;43.780;25.948;2023-05-27T07:35:06;100853.09;;;21.11;73.20
45285;BME280;31026;43.780;25.948;2023-05-27T07:37:35;100846.66;;;21.03;73.64
45285;BME280;31026;43.780;25.948;2023-05-27T07:40:03;100858.94;;;21.06;73.78
45285;BME280;31026;43.780;25.948;2023-05-27T07:42:34;100847.66;;;21.30;73.11
45285;BME280;31026;43.780;25.948;2023-05-27T07:45:04;100858.75;;;21.17;73.59
45285;BME280;31026;43.780;25.948;2023-05-27T07:47:32;100858.00;;;20.97;72.50
45285;BME280;31026;43.780;25.948;2023-05-27T07:50:00;100859.44;;;20.82;72.75
45285;BME280;31026;43.780;25.948;2023-05-27T07:52:29;100856.88;;;20.80;72.79
45285;BME280;31026;43.780;25.948;2023-05-27T07:54:57;100845.91;;;20.64;72.99
45285;BME280;31026;43.780;25.948;2023-05-27T07:57:25;100883.09;;;20.59;72.95
45285;BME280;31026;43.780;25.948;2023-05-27T07:59:56;100860.72;;;20.58;72.55
45285;BME280;31026;43.780;25.948;2023-05-27T08:02:24;100858.31;;;20.65;72.84
45285;BME280;31026;43.780;25.948;2023-05-27T08:04:53;100849.28;;;20.56;72.60
45285;BME280;31026;43.780;25.948;2023-05-27T08:07:22;100863.16;;;20.52;72.47
45285;BME280;31026;43.780;25.948;2023-05-27T08:09:50;100863.72;;;20.55;72.99
45285;BME280;31026;43.780;25.948;2023-05-27T08:12:19;100856.09;;;20.60;72.64
45285;BME280;31026;43.780;25.948;2023-05-27T08:14:47;100869.38;;;20.72;72.63
45285;BME280;31026;43.780;25.948;2023-05-27T08:17:18;100859.69;;;20.89;72.31
45285;BME280;31026;43.780;25.948;2023-05-27T08:19:46;100871.88;;;20.83;72.28
45285;BME280;31026;43.780;25.948;2023-05-27T08:22:15;100876.16;;;20.66;72.88
45285;BME280;31026;43.780;25.948;2023-05-27T08:24:43;100874.19;;;20.68;73.01
45285;BME280;31026;43.780;25.948;2023-05-27T08:27:13;100853.81;;;20.65;73.27
45285;BME280;31026;43.780;25.948;2023-05-27T08:29:41;100864.25;;;20.69;73.50
45285;BME280;31026;43.780;25.948;2023-05-27T08:32:10;100875.72;;;20.71;73.83
45285;BME280;31026;43.780;25.948;2023-05-27T08:34:41;100875.31;;;20.65;73.62
45285;BME280;31026;43.780;25.948;2023-05-27T08:48:55;100860.59;;;20.70;73.54
45285;BME280;31026;43.780;25.948;2023-05-27T08:51:23;100767.31;;;20.13;73.54
45285;BME280;31026;43.780;25.948;2023-05-27T08:53:52;100862.59;;;20.68;73.63
45285;BME280;31026;43.780;25.948;2023-05-27T08:56:20;100858.16;;;20.86;72.92
45285;BME280;31026;43.780;25.948;2023-05-27T08:58:50;100851.09;;;20.85;73.14
45285;BME280;31026;43.780;25.948;2023-05-27T09:01:19;100862.81;;;20.84;73.01
45285;BME280;31026;43.780;25.948;2023-05-27T09:03:48;100858.59;;;20.81;73.25
45285;BME280;31026;43.780;25.948;2023-05-27T09:06:19;100859.44;;;20.82;73.03
45285;BME280;31026;43.780;25.948;2023-05-27T09:08:47;100858.03;;;20.78;73.13
45285;BME280;31026;43.780;25.948;2023-05-27T09:11:20;100857.44;;;20.84;72.96
45285;BME280;31026;43.780;25.948;2023-05-27T09:13:48;100857.59;;;20.82;73.15
45285;BME280;31026;43.780;25.948;2023-05-27T09:16:19;100853.78;;;20.85;72.99
45285;BME280;31026;43.780;25.948;2023-05-27T09:18:48;100858.13;;;20.96;72.99
45285;BME280;31026;43.780;25.948;2023-05-27T09:21:19;100844.22;;;21.00;72.60
45285;BME280;31026;43.780;25.948;2023-05-27T09:23:47;100842.25;;;21.02;72.47
45285;BME280;31026;43.780;25.948;2023-05-27T09:26:16;100838.97;;;21.09;71.97
45285;BME280;31026;43.780;25.948;2023-05-27T09:28:44;100846.25;;;21.26;71.69
45285;BME280;31026;43.780;25.948;2023-05-27T09:31:13;100830.97;;;21.26;71.67
45285;BME280;31026;43.780;25.948;2023-05-27T09:33:41;100841.44;;;21.30;71.63
45285;BME280;31026;43.780;25.948;2023-05-27T09:36:09;100836.19;;;21.28;71.63
45285;BME280;31026;43.780;25.948;2023-05-27T09:38:40;100838.19;;;21.26;71.59
45285;BME280;31026;43.780;25.948;2023-05-27T09:41:08;100828.13;;;21.28;71.69
45285;BME280;31026;43.780;25.948;2023-05-27T09:43:36;100827.84;;;21.31;71.72
45285;BME280;31026;43.780;25.948;2023-05-27T09:46:07;100829.84;;;21.29;71.57
45285;BME280;31026;43.780;25.948;2023-05-27T09:48:38;100823.03;;;21.35;71.58
45285;BME280;31026;43.780;25.948;2023-05-27T09:51:07;100816.78;;;21.34;71.52
45285;BME280;31026;43.780;25.948;2023-05-27T09:53:36;100825.44;;;21.28;71.95
45285;BME280;31026;43.780;25.948;2023-05-27T09:56:07;100819.69;;;21.23;72.03
45285;BME280;31026;43.780;25.948;2023-05-27T09:58:36;100827.44;;;21.26;71.64
45285;BME280;31026;43.780;25.948;2023-05-27T10:01:04;100817.66;;;21.35;71.85
45285;BME280;31026;43.780;25.948;2023-05-27T10:03:33;100813.75;;;21.19;72.14
45285;BME280;31026;43.780;25.948;2023-05-27T10:06:02;100820.75;;;21.30;71.77
45285;BME280;31026;43.780;25.948;2023-05-27T10:08:31;100814.00;;;21.26;71.88
45285;BME280;31026;43.780;25.948;2023-05-27T10:11:00;100805.13;;;21.16;72.23
45285;BME280;31026;43.780;25.948;2023-05-27T10:13:31;100811.44;;;21.24;72.01
45285;BME280;31026;43.780;25.948;2023-05-27T10:15:59;100803.59;;;21.13;72.33
45285;BME280;31026;43.780;25.948;2023-05-27T10:18:28;100793.66;;;21.14;72.28
45285;BME280;31026;43.780;25.948;2023-05-27T10:20:59;100717.94;;;20.53;72.71
45285;BME280;31026;43.780;25.948;2023-05-27T10:23:28;100792.50;;;21.16;71.89
45285;BME280;31026;43.780;25.948;2023-05-27T10:26:01;100798.81;;;21.07;71.98
45285;BME280;31026;43.780;25.948;2023-05-27T10:28:33;100787.94;;;21.26;71.42
45285;BME280;31026;43.780;25.948;2023-05-27T10:31:04;100794.91;;;21.19;71.70
45285;BME280;31026;43.780;25.948;2023-05-27T10:33:34;100779.34;;;21.23;71.79
45285;BME280;31026;43.780;25.948;2023-05-27T10:36:03;100774.28;;;21.38;71.20
45285;BME280;31026;43.780;25.948;2023-05-27T10:38:32;100768.34;;;21.34;71.48
45285;BME280;31026;43.780;25.948;2023-05-27T10:41:01;100772.41;;;21.20;71.56
45285;BME280;31026;43.780;25.948;2023-05-27T10:43:33;100762.06;;;21.25;71.51
45285;BME280;31026;43.780;25.948;2023-05-27T10:46:02;100756.06;;;21.32;71.28
45285;BME280;31026;43.780;25.948;2023-05-27T10:48:31;100754.28;;;21.40;71.14
45285;BME280;31026;43.780;25.948;2023-05-27T10:51:00;100739.28;;;21.20;71.76
45285;BME280;31026;43.780;25.948;2023-05-27T10:53:28;100748.94;;;21.13;72.35
45285;BME280;31026;43.780;25.948;2023-05-27T10:55:57;100742.25;;;21.44;71.21
45285;BME280;31026;43.780;25.948;2023-05-27T10:58:26;100738.06;;;21.32;71.30
45285;BME280;31026;43.780;25.948;2023-05-27T11:00:57;100747.25;;;21.39;71.61
45285;BME280;31026;43.780;25.948;2023-05-27T11:03:26;100731.69;;;21.15;72.34
45285;BME280;31026;43.780;25.948;2023-05-27T11:05:59;100715.53;;;21.15;72.19
45285;BME280;31026;43.780;25.948;2023-05-27T11:08:28;100724.84;;;21.21;71.38
45285;BME280;31026;43.780;25.948;2023-05-27T11:10:57;100707.50;;;21.33;71.20
45285;BME280;31026;43.780;25.948;2023-05-27T11:13:32;100705.19;;;21.38;71.44
45285;BME280;31026;43.780;25.948;2023-05-27T11:16:03;100705.72;;;21.42;71.37
45285;BME280;31026;43.780;25.948;2023-05-27T11:18:35;100709.88;;;21.36;71.39
45285;BME280;31026;43.780;25.948;2023-05-27T11:21:04;100698.38;;;21.44;71.28
45285;BME280;31026;43.780;25.948;2023-05-27T11:23:35;100699.09;;;21.36;71.38
45285;BME280;31026;43.780;25.948;2023-05-27T11:26:05;100693.09;;;21.24;71.89
45285;BME280;31026;43.780;25.948;2023-05-27T11:28:38;100691.00;;;21.46;71.34
45285;BME280;31026;43.780;25.948;2023-05-27T11:31:15;100703.00;;;21.52;71.32
45285;BME280;31026;43.780;25.948;2023-05-27T11:33:45;100690.00;;;21.65;70.78
45285;BME280;31026;43.780;25.948;2023-05-27T11:36:14;100696.00;;;21.59;70.90
45285;BME280;31026;43.780;25.948;2023-05-27T11:38:46;100681.16;;;21.73;70.78
45285;BME280;31026;43.780;25.948;2023-05-27T11:41:16;100690.56;;;21.51;71.47
45285;BME280;31026;43.780;25.948;2023-05-27T11:43:51;100669.09;;;21.59;71.32
45285;BME280;31026;43.780;25.948;2023-05-27T11:46:22;100665.22;;;21.79;70.42
45285;BME280;31026;43.780;25.948;2023-05-27T11:48:51;100663.31;;;21.72;70.92
45285;BME280;31026;43.780;25.948;2023-05-27T11:51:25;100671.63;;;21.60;71.37
45285;BME280;31026;43.780;25.948;2023-05-27T11:53:55;100671.88;;;21.67;71.16
45285;BME280;31026;43.780;25.948;2023-05-27T11:56:23;100654.41;;;21.71;72.64
45285;BME280;31026;43.780;25.948;2023-05-27T11:58:54;100642.53;;;21.82;70.99
45285;BME280;31026;43.780;25.948;2023-05-27T12:01:25;100646.44;;;21.88;71.10
45285;BME280;31026;43.780;25.948;2023-05-27T12:03:53;100644.38;;;21.81;72.71
45285;BME280;31026;43.780;25.948;2023-05-27T12:06:21;100635.03;;;21.68;73.38
45285;BME280;31026;43.780;25.948;2023-05-27T12:08:50;100635.47;;;21.81;74.15
45285;BME280;31026;43.780;25.948;2023-05-27T12:11:18;100644.19;;;21.75;74.82
45285;BME280;31026;43.780;25.948;2023-05-27T12:13:47;100632.00;;;21.89;74.44
45285;BME280;31026;43.780;25.948;2023-05-27T12:16:16;100627.66;;;21.96;74.51
45285;BME280;31026;43.780;25.948;2023-05-27T12:18:47;100636.41;;;21.98;76.69
45285;BME280;31026;43.780;25.948;2023-05-27T12:21:15;100620.25;;;21.98;77.47
45285;BME280;31026;43.780;25.948;2023-05-27T12:23:45;100597.03;;;21.97;78.16
45285;BME280;31026;43.780;25.948;2023-05-27T12:26:14;100603.78;;;22.01;77.86
45285;BME280;31026;43.780;25.948;2023-05-27T12:28:42;100614.63;;;22.09;77.21
45285;BME280;31026;43.780;25.948;2023-05-27T12:31:11;100609.19;;;22.01;78.35
45285;BME280;31026;43.780;25.948;2023-05-27T12:33:39;100618.09;;;22.01;78.04
45285;BME280;31026;43.780;25.948;2023-05-27T12:36:10;100614.28;;;22.12;76.52
45285;BME280;31026;43.780;25.948;2023-05-27T12:38:38;100604.91;;;22.16;77.32
45285;BME280;31026;43.780;25.948;2023-05-27T12:41:06;100601.41;;;21.98;76.61
45285;BME280;31026;43.780;25.948;2023-05-27T12:43:35;100595.72;;;22.01;76.08
45285;BME280;31026;43.780;25.948;2023-05-27T12:46:03;100597.50;;;21.92;76.07
45285;BME280;31026;43.780;25.948;2023-05-27T12:48:31;100574.63;;;21.96;75.83
45285;BME280;31026;43.780;25.948;2023-05-27T12:51:00;100578.19;;;21.97;76.38
45285;BME280;31026;43.780;25.948;2023-05-27T12:53:31;100576.88;;;22.01;75.69
45285;BME280;31026;43.780;25.948;2023-05-27T12:55:59;100582.72;;;21.96;76.32
45285;BME280;31026;43.780;25.948;2023-05-27T12:58:27;100559.38;;;22.05;75.38
45285;BME280;31026;43.780;25.948;2023-05-27T13:00:55;100564.50;;;22.16;75.34